Airfield :
LOGIN :

Register | Disclaimer

   EN    FR    IT 

 










Legend :    VFR   Marginal VFR   IFR   Intensive IFR   Very Intensive IFR
Visi :
Ceiling :
>= 8 km
>= 3000ft
5 to 8 km
1000 to 3000 ft
1500m to 5 km
500 to 1000 ft
800 to 1500m
200 to 500 ft
< 800m
< 200 ft
Symbols :   Thunderstorms  Fog  Heavy snow  Heavy precipitations  Wind > 20 kt
SIGMETs :     Misc.  Thunderstorms  Icing  Turbulence  Mountain Waves  Volcanic Ashes






- Airport Elevation : 33 ft
- IATA code : MHZ


EGUN - RAF Mildenhall

CURRENT METAR :
  • 281456Z AUTO 17007KT 9999 CLR 21/05 A3049 RMK AO2 SLP328 T02130048 57016 $

EXPIRED METARs :
  • 281356Z AUTO 00000KT 9999 CLR 21/05 A3050 RMK AO2 SLP331 T02110050 $
  • 281256Z AUTO 19005KT 9999 CLR 21/05 A3052 RMK AO2 SLP338 T02050053 $

TAF TAF EGUN
Valid from the 28 at 12:00 until the 29 at 18:00 UTC


281200Z 2812/2918 12012KT 9999 SKC QNH3050INS
BECMG 2819/2820 11009KT 9999 SKC QNH3046INS
BECMG 2903/2904 11009KT 8000 BR SCT050 QNH3046INS
BECMG 2907/2908 11012KT 9999 NSW SCT050 QNH3035INS TX21/2814Z TN07/2904Z



MET'MAP, your aeronautical weather chart ! - Copyright ORBIFLY December 2007 - Disclaimer

ORBIFLY MET'MAP TEAM :

Programming & Development : Alexandra Zaïnal
Concept & original design : Baudouin d'Aumeries
Assistance for programming : Marc-Olivier Méhu
Technical & hardware support : Manuel Goepfert

Contact : metmap@orbifly.com




SOURCES & CREDITS :

   NOAA